Time;durP1;ratioP1;P1;durP2;ratioP2;P2;SDS_P1;SDS_P2;PMS_P1;PMS_P2;Temp;Humidity;BMP_temperature;BMP_pressure;BME280_temperature;BME280_humidity;BME280_pressure;Samples;Min_cycle;Max_cycle;Signal;HPM_P1;HPM_P2
2023/03/08 00:00:48;;;;;;;2.35;1.20;;;;;;;;;;5057166;28;20040;-67
2023/03/08 00:03:14;;;;;;;2.38;0.90;;;;;;;;;;5068257;28;20033;-67
2023/03/08 00:05:40;;;;;;;1.63;1.20;;;;;;;;;;5057500;28;20029;-67
2023/03/08 00:08:07;;;;;;;4.03;0.93;;;;;;;;;;5062806;28;20029;-67
2023/03/08 00:10:33;;;;;;;4.55;0.80;;;;;;;;;;5064443;28;20166;-67
2023/03/08 00:12:59;;;;;;;4.28;1.00;;;;;;;;;;5056021;28;20477;-67
2023/03/08 00:15:25;;;;;;;2.65;0.90;;;;;;;;;;5060867;28;20047;-67
2023/03/08 00:17:51;;;;;;;3.40;0.70;;;;;;;;;;5057159;28;20025;-67
2023/03/08 00:20:17;;;;;;;3.03;0.80;;;;;;;;;;5061846;28;20079;-67
2023/03/08 00:22:43;;;;;;;7.97;0.88;;;;;;;;;;5065655;28;20453;-67
2023/03/08 00:25:10;;;;;;;2.03;0.70;;;;;;;;;;5061056;28;20052;-67
2023/03/08 00:27:37;;;;;;;3.05;0.47;;;;;;;;;;5071596;28;20021;-67
2023/03/08 00:30:05;;;;;;;2.97;0.60;;;;;;;;;;5063144;28;20029;-67
2023/03/08 00:32:31;;;;;;;2.55;0.63;;;;;;;;;;5056723;28;20488;-67
2023/03/08 00:34:57;;;;;;;0.88;0.60;;;;;;;;;;5042509;28;20037;-67
2023/03/08 00:37:23;;;;;;;3.88;0.63;;;;;;;;;;5054364;28;20036;-67
2023/03/08 00:39:51;;;;;;;3.50;0.40;;;;;;;;;;5074738;28;20408;-67
2023/03/08 00:42:17;;;;;;;1.33;0.50;;;;;;;;;;5064878;28;20037;-67
2023/03/08 00:44:43;;;;;;;0.45;0.30;;;;;;;;;;5067846;28;20423;-67
2023/03/08 00:47:11;;;;;;;0.70;0.40;;;;;;;;;;5050643;28;20029;-67
2023/03/08 00:49:37;;;;;;;1.80;0.35;;;;;;;;;;5053587;28;20047;-67
2023/03/08 00:52:03;;;;;;;2.72;0.80;;;;;;;;;;5061916;28;20062;-67
2023/03/08 00:54:29;;;;;;;0.65;0.40;;;;;;;;;;5065861;28;20043;-67
2023/03/08 00:56:56;;;;;;;0.85;0.38;;;;;;;;;;5049532;28;20107;-67
2023/03/08 00:59:22;;;;;;;1.90;0.43;;;;;;;;;;5046468;28;20122;-67
2023/03/08 01:01:49;;;;;;;1.45;0.40;;;;;;;;;;5056004;28;20028;-67
2023/03/08 01:04:15;;;;;;;1.40;0.35;;;;;;;;;;5074632;28;20086;-67
2023/03/08 01:06:42;;;;;;;1.20;0.40;;;;;;;;;;5062941;28;20111;-67
2023/03/08 01:09:10;;;;;;;1.40;0.40;;;;;;;;;;5052959;28;20032;-67
2023/03/08 01:11:36;;;;;;;1.80;0.40;;;;;;;;;;5067781;28;20107;-67
2023/03/08 01:14:03;;;;;;;0.32;0.28;;;;;;;;;;5068123;28;20116;-67
2023/03/08 01:16:31;;;;;;;0.50;0.30;;;;;;;;;;5056123;28;20032;-67
2023/03/08 01:18:58;;;;;;;0.40;0.40;;;;;;;;;;5068734;28;20376;-67
2023/03/08 01:21:25;;;;;;;2.35;0.30;;;;;;;;;;5039905;28;20114;-67
2023/03/08 01:23:51;;;;;;;1.00;0.30;;;;;;;;;;5052041;28;20029;-67
2023/03/08 01:26:19;;;;;;;0.98;0.40;;;;;;;;;;5052169;28;20047;-67
2023/03/08 01:28:46;;;;;;;1.08;0.60;;;;;;;;;;5044198;28;20044;-67
2023/03/08 01:31:14;;;;;;;2.05;0.63;;;;;;;;;;5052187;28;20041;-67
2023/03/08 01:33:40;;;;;;;2.15;0.50;;;;;;;;;;5039300;28;20048;-67
2023/03/08 01:36:07;;;;;;;3.03;1.13;;;;;;;;;;5049506;28;20484;-67
2023/03/08 01:38:34;;;;;;;4.18;0.90;;;;;;;;;;5064098;28;20032;-67
2023/03/08 01:41:01;;;;;;;7.40;2.08;;;;;;;;;;5060391;28;20041;-67
2023/03/08 01:43:38;;;;;;;12.35;2.20;;;;;;;;;;5070827;28;20116;-67
2023/03/08 01:46:15;;;;;;;9.93;2.70;;;;;;;;;;5042489;28;20024;-67
2023/03/08 01:48:47;;;;;;;14.10;2.80;;;;;;;;;;5044722;28;20094;-67
2023/03/08 01:51:16;;;;;;;;;;;;;;;;;;5069977;28;20036;-67
2023/03/08 01:53:43;;;;;;;17.67;2.92;;;;;;;;;;5057091;28;19908;-67
2023/03/08 01:56:11;;;;;;;17.80;3.35;;;;;;;;;;5055730;28;20039;-67
2023/03/08 01:58:38;;;;;;;29.30;4.10;;;;;;;;;;5063860;28;20520;-67
2023/03/08 02:01:04;;;;;;;29.85;4.65;;;;;;;;;;5049849;28;20024;-67
2023/03/08 02:03:31;;;;;;;27.92;5.40;;;;;;;;;;5038945;28;20087;-66
2023/03/08 02:05:58;;;;;;;27.05;4.30;;;;;;;;;;5051508;28;20021;-67
2023/03/08 02:08:24;;;;;;;32.65;5.65;;;;;;;;;;5042189;28;20035;-67
2023/03/08 02:10:51;;;;;;;30.10;4.78;;;;;;;;;;5043398;28;21492;-67
2023/03/08 02:13:18;;;;;;;39.55;5.43;;;;;;;;;;5042849;28;20039;-67
2023/03/08 02:15:45;;;;;;;34.15;6.60;;;;;;;;;;5045061;28;20517;-67
2023/03/08 02:18:11;;;;;;;54.72;6.30;;;;;;;;;;5048137;28;20132;-67
2023/03/08 02:20:38;;;;;;;35.95;5.85;;;;;;;;;;5056068;28;20031;-67
2023/03/08 02:23:17;;;;;;;37.08;6.75;;;;;;;;;;5048621;28;20111;-67
2023/03/08 02:25:51;;;;;;;41.05;7.32;;;;;;;;;;5065365;28;20089;-67
2023/03/08 02:28:18;;;;;;;39.13;6.03;;;;;;;;;;5049389;28;20037;-67
2023/03/08 02:30:45;;;;;;;39.35;5.55;;;;;;;;;;5045144;28;20044;-67
2023/03/08 02:33:11;;;;;;;30.60;6.95;;;;;;;;;;5059907;28;20032;-67
2023/03/08 02:35:41;;;;;;;35.65;6.75;;;;;;;;;;5069483;28;20166;-67
2023/03/08 02:38:08;;;;;;;48.85;8.10;;;;;;;;;;5043239;28;20036;-67
2023/03/08 02:40:35;;;;;;;48.80;6.07;;;;;;;;;;5069328;28;20056;-67
2023/03/08 02:43:01;;;;;;;40.88;5.45;;;;;;;;;;5049359;28;20107;-67
2023/03/08 02:45:27;;;;;;;41.67;7.57;;;;;;;;;;5069446;28;20021;-67
2023/03/08 02:47:53;;;;;;;46.50;6.68;;;;;;;;;;5067654;28;20187;-67
2023/03/08 02:50:19;;;;;;;39.03;6.25;;;;;;;;;;5051525;28;20033;-66
2023/03/08 02:52:46;;;;;;;42.95;5.40;;;;;;;;;;5048911;28;20061;-67
2023/03/08 02:55:12;;;;;;;55.25;9.20;;;;;;;;;;5069812;28;20039;-67
2023/03/08 02:57:38;;;;;;;42.92;7.60;;;;;;;;;;5048716;28;20058;-66
2023/03/08 03:00:05;;;;;;;42.63;6.55;;;;;;;;;;5045807;28;20036;-67
2023/03/08 03:02:32;;;;;;;46.88;5.82;;;;;;;;;;5048485;28;20025;-66
2023/03/08 03:04:58;;;;;;;35.42;6.43;;;;;;;;;;5050050;28;20024;-66
2023/03/08 03:07:26;;;;;;;45.42;5.85;;;;;;;;;;5048815;28;20021;-67
2023/03/08 03:09:52;;;;;;;38.50;6.38;;;;;;;;;;5061196;28;20055;-67
2023/03/08 03:12:18;;;;;;;42.67;6.15;;;;;;;;;;5051725;28;20036;-67
2023/03/08 03:14:45;;;;;;;50.80;7.60;;;;;;;;;;5048141;28;20458;-67
2023/03/08 03:17:11;;;;;;;45.65;6.55;;;;;;;;;;5050331;28;20054;-67
2023/03/08 03:19:38;;;;;;;47.72;7.82;;;;;;;;;;5063307;28;20032;-67
2023/03/08 03:22:04;;;;;;;36.65;6.47;;;;;;;;;;5047519;28;20068;-67
2023/03/08 03:24:30;;;;;;;56.13;9.40;;;;;;;;;;5049920;28;20097;-67
2023/03/08 03:26:58;;;;;;;43.75;6.95;;;;;;;;;;5050740;28;20028;-67
2023/03/08 03:29:27;;;;;;;50.75;8.55;;;;;;;;;;5065295;28;20025;-67
2023/03/08 03:32:04;;;;;;;49.65;7.60;;;;;;;;;;5048297;28;20036;-67
2023/03/08 03:34:30;;;;;;;45.47;7.45;;;;;;;;;;5050531;28;20070;-66
2023/03/08 03:36:56;;;;;;;44.88;7.25;;;;;;;;;;5050922;28;20032;-67
2023/03/08 03:39:23;;;;;;;41.55;6.70;;;;;;;;;;5050606;28;20057;-67
2023/03/08 03:41:49;;;;;;;50.70;9.23;;;;;;;;;;5051976;28;20036;-67
2023/03/08 03:44:17;;;;;;;42.78;7.40;;;;;;;;;;5052615;28;20056;-67
2023/03/08 03:46:45;;;;;;;43.20;7.00;;;;;;;;;;5052060;28;20062;-67
2023/03/08 03:49:14;;;;;;;52.70;8.13;;;;;;;;;;5063834;28;20093;-67
2023/03/08 03:51:43;;;;;;;41.67;8.23;;;;;;;;;;5051838;28;20492;-67
2023/03/08 03:54:32;;;;;;;39.40;8.02;;;;;;;;;;5057507;28;20045;-67
2023/03/08 03:56:59;;;;;;;37.35;6.70;;;;;;;;;;5050069;28;20081;-67
2023/03/08 03:59:29;;;;;;;41.85;6.32;;;;;;;;;;5052625;28;20441;-67
2023/03/08 04:01:55;;;;;;;35.35;5.78;;;;;;;;;;5055706;28;20067;-67
2023/03/08 04:04:30;;;;;;;36.15;5.97;;;;;;;;;;5051416;28;20054;-67
2023/03/08 04:06:56;;;;;;;35.20;7.57;;;;;;;;;;5054446;28;20082;-67
2023/03/08 04:09:26;;;;;;;53.53;6.97;;;;;;;;;;5045559;28;20028;-67
2023/03/08 04:12:04;;;;;;;37.60;5.75;;;;;;;;;;5056988;28;20199;-67
2023/03/08 04:14:31;;;;;;;45.13;6.20;;;;;;;;;;5056029;28;20068;-67
2023/03/08 04:16:58;;;;;;;34.67;5.53;;;;;;;;;;5056878;28;20055;-67
2023/03/08 04:19:36;;;;;;;38.25;5.78;;;;;;;;;;5056742;28;20031;-67
2023/03/08 04:22:03;;;;;;;29.33;5.35;;;;;;;;;;5057060;28;20132;-67
2023/03/08 04:24:36;;;;;;;38.63;6.80;;;;;;;;;;5075803;28;20044;-67
2023/03/08 04:27:08;;;;;;;31.13;5.90;;;;;;;;;;5058061;28;20021;-67
2023/03/08 04:29:35;;;;;;;37.75;6.18;;;;;;;;;;5057712;28;20032;-67
2023/03/08 04:32:02;;;;;;;53.58;6.97;;;;;;;;;;5056492;28;20044;-67
2023/03/08 04:34:38;;;;;;;31.85;5.75;;;;;;;;;;5047096;28;20438;-67
2023/03/08 04:37:04;;;;;;;30.75;7.43;;;;;;;;;;5037480;28;20037;-67
2023/03/08 04:39:31;;;;;;;41.47;5.80;;;;;;;;;;5037755;28;20053;-67
2023/03/08 04:41:57;;;;;;;38.72;6.03;;;;;;;;;;5037876;28;20068;-67
2023/03/08 04:44:27;;;;;;;38.30;6.65;;;;;;;;;;5047936;28;20120;-67
2023/03/08 04:46:55;;;;;;;44.05;7.25;;;;;;;;;;5057433;28;20166;-67
2023/03/08 04:49:35;;;;;;;38.85;5.97;;;;;;;;;;5057486;28;20392;-67
2023/03/08 04:52:03;;;;;;;35.17;6.45;;;;;;;;;;5057404;28;20029;-67
2023/03/08 04:54:32;;;;;;;40.70;9.27;;;;;;;;;;5057317;28;20032;-67
2023/03/08 04:57:05;;;;;;;39.60;6.65;;;;;;;;;;5075428;28;20085;-67
2023/03/08 04:59:33;;;;;;;35.08;6.07;;;;;;;;;;5057457;28;20029;-67
2023/03/08 05:02:02;;;;;;;31.35;5.90;;;;;;;;;;5057519;28;20029;-67
2023/03/08 05:04:31;;;;;;;41.58;6.63;;;;;;;;;;5056640;28;20178;-67
2023/03/08 05:06:57;;;;;;;42.58;8.45;;;;;;;;;;5057517;28;20480;-67
2023/03/08 05:09:26;;;;;;;45.13;7.05;;;;;;;;;;5057276;28;20024;-67
2023/03/08 05:11:53;;;;;;;58.50;7.10;;;;;;;;;;5056388;28;20032;-67
2023/03/08 05:14:20;;;;;;;49.25;8.18;;;;;;;;;;5046646;28;20029;-67
2023/03/08 05:16:48;;;;;;;40.05;6.53;;;;;;;;;;5037250;28;20028;-67
2023/03/08 05:19:14;;;;;;;52.00;6.63;;;;;;;;;;5054692;28;20056;-67
2023/03/08 05:21:50;;;;;;;38.03;6.88;;;;;;;;;;5037216;28;20555;-66
2023/03/08 05:24:17;;;;;;;44.33;6.60;;;;;;;;;;5036965;28;20031;-67
2023/03/08 05:26:43;;;;;;;34.55;6.95;;;;;;;;;;5056629;28;20445;-67
2023/03/08 05:29:13;;;;;;;41.17;6.40;;;;;;;;;;5057006;28;20427;-67
2023/03/08 05:31:42;;;;;;;48.47;8.30;;;;;;;;;;5056716;28;20427;-67
2023/03/08 05:34:10;;;;;;;50.17;7.97;;;;;;;;;;5056471;28;20496;-67
2023/03/08 05:36:36;;;;;;;48.03;8.13;;;;;;;;;;5074710;28;20091;-67
2023/03/08 05:39:05;;;;;;;50.63;7.45;;;;;;;;;;5056410;28;20395;-67
2023/03/08 05:41:47;;;;;;;47.95;7.28;;;;;;;;;;5074719;28;20115;-67
2023/03/08 05:44:20;;;;;;;64.93;9.48;;;;;;;;;;5056688;28;20495;-67
2023/03/08 05:46:51;;;;;;;41.97;7.47;;;;;;;;;;5056595;28;20032;-66
2023/03/08 05:49:18;;;;;;;45.45;7.55;;;;;;;;;;5056510;28;20128;-67
2023/03/08 05:51:45;;;;;;;39.15;7.85;;;;;;;;;;5056473;28;20039;-67
2023/03/08 05:54:11;;;;;;;44.72;7.57;;;;;;;;;;5055841;28;20492;-67
2023/03/08 05:56:39;;;;;;;51.45;6.82;;;;;;;;;;5055677;28;20048;-67
2023/03/08 05:59:12;;;;;;;48.55;6.97;;;;;;;;;;5046684;28;20064;-67
2023/03/08 06:01:38;;;;;;;57.75;7.90;;;;;;;;;;5077604;28;20029;-66
2023/03/08 06:04:15;;;;;;;57.85;9.00;;;;;;;;;;5052434;28;20037;-67
2023/03/08 06:06:43;;;;;;;45.85;9.00;;;;;;;;;;5046653;28;20025;-67
2023/03/08 06:09:10;;;;;;;53.35;9.80;;;;;;;;;;5043516;28;20028;-67
2023/03/08 06:11:39;;;;;;;42.15;7.78;;;;;;;;;;5045970;28;20044;-67
2023/03/08 06:14:06;;;;;;;54.15;7.97;;;;;;;;;;5048278;28;20170;-67
2023/03/08 06:16:33;;;;;;;55.03;9.30;;;;;;;;;;5051803;28;20032;-67
2023/03/08 06:19:01;;;;;;;50.42;7.60;;;;;;;;;;5065181;28;20067;-67
2023/03/08 06:21:27;;;;;;;50.92;8.95;;;;;;;;;;5045176;28;20044;-67
2023/03/08 06:24:02;;;;;;;44.28;7.55;;;;;;;;;;5049720;28;20423;-67
2023/03/08 06:26:28;;;;;;;54.88;8.75;;;;;;;;;;5050596;28;20375;-68
2023/03/08 06:28:55;;;;;;;48.28;8.90;;;;;;;;;;5060775;28;20435;-67
2023/03/08 06:31:25;;;;;;;62.63;9.35;;;;;;;;;;5063178;28;20037;-68
2023/03/08 06:33:51;;;;;;;46.60;7.82;;;;;;;;;;5051017;28;20039;-67
2023/03/08 06:36:22;;;;;;;48.47;7.53;;;;;;;;;;5074907;28;20098;-68
2023/03/08 06:38:49;;;;;;;44.08;8.93;;;;;;;;;;5051383;28;20048;-67
2023/03/08 06:41:16;;;;;;;50.83;8.82;;;;;;;;;;5053390;28;20049;-67
2023/03/08 06:43:44;;;;;;;60.42;7.88;;;;;;;;;;5035582;28;20090;-67
2023/03/08 06:46:12;;;;;;;55.90;8.98;;;;;;;;;;5033125;28;20542;-68
2023/03/08 06:48:40;;;;;;;52.80;9.18;;;;;;;;;;5052933;28;20039;-68
2023/03/08 06:51:06;;;;;;;55.75;8.98;;;;;;;;;;5035298;28;20665;-68
2023/03/08 06:53:35;;;;;;;59.78;9.30;;;;;;;;;;5035212;28;20519;-68
2023/03/08 06:56:07;;;;;;;58.22;9.38;;;;;;;;;;5035292;28;20037;-68
2023/03/08 06:58:34;;;;;;;59.67;8.50;;;;;;;;;;5034974;28;20037;-67
2023/03/08 07:01:03;;;;;;;49.03;7.82;;;;;;;;;;5046541;28;20105;-67
2023/03/08 07:03:29;;;;;;;57.83;10.70;;;;;;;;;;5048451;28;20371;-67
2023/03/08 07:05:59;;;;;;;58.03;10.77;;;;;;;;;;5049613;28;21712;-68
2023/03/08 07:08:26;;;;;;;42.58;7.85;;;;;;;;;;5050977;28;20110;-68
2023/03/08 07:10:52;;;;;;;50.10;8.18;;;;;;;;;;5045597;28;20052;-67
2023/03/08 07:13:18;;;;;;;59.72;8.32;;;;;;;;;;5051956;28;20122;-67
2023/03/08 07:15:45;;;;;;;46.13;8.85;;;;;;;;;;5052148;28;20484;-67
2023/03/08 07:18:11;;;;;;;56.05;8.88;;;;;;;;;;5052184;28;20029;-67
2023/03/08 07:20:37;;;;;;;54.38;8.65;;;;;;;;;;5052818;28;20043;-67
2023/03/08 07:23:03;;;;;;;61.67;8.85;;;;;;;;;;5052295;28;20115;-67
2023/03/08 07:25:30;;;;;;;58.72;8.10;;;;;;;;;;5051837;28;20021;-68
2023/03/08 07:27:58;;;;;;;54.78;8.90;;;;;;;;;;5031171;28;20083;-68
2023/03/08 07:30:24;;;;;;;69.35;9.77;;;;;;;;;;5032798;28;20401;-67
2023/03/08 07:32:52;;;;;;;62.80;10.52;;;;;;;;;;5047846;28;20041;-67
2023/03/08 07:35:18;;;;;;;55.22;9.73;;;;;;;;;;5052286;28;20098;-67
2023/03/08 07:37:45;;;;;;;45.78;9.10;;;;;;;;;;5051861;28;20081;-67
2023/03/08 07:40:12;;;;;;;60.00;9.95;;;;;;;;;;5052396;28;20048;-67
2023/03/08 07:42:38;;;;;;;41.95;7.18;;;;;;;;;;5052218;28;20079;-67
2023/03/08 07:45:17;;;;;;;59.38;10.52;;;;;;;;;;5024290;28;20036;-67
2023/03/08 07:47:43;;;;;;;55.92;9.98;;;;;;;;;;5034327;28;20450;-67
2023/03/08 07:50:10;;;;;;;56.30;10.73;;;;;;;;;;5052390;28;20024;-67
2023/03/08 07:52:36;;;;;;;53.70;9.73;;;;;;;;;;5043402;28;20101;-67
2023/03/08 07:55:02;;;;;;;61.58;8.75;;;;;;;;;;5050985;28;20033;-66
2023/03/08 07:57:28;;;;;;;43.47;7.97;;;;;;;;;;5042654;28;20075;-67
2023/03/08 07:59:54;;;;;;;54.08;9.43;;;;;;;;;;5037901;28;20111;-67
2023/03/08 08:02:20;;;;;;;53.25;8.38;;;;;;;;;;5040686;28;20467;-66
2023/03/08 08:04:47;;;;;;;53.67;7.93;;;;;;;;;;5045162;28;20025;-67
2023/03/08 08:07:14;;;;;;;67.22;10.88;;;;;;;;;;5044217;28;20512;-66
2023/03/08 08:09:41;;;;;;;59.13;8.95;;;;;;;;;;5045418;28;20095;-66
2023/03/08 08:12:07;;;;;;;74.70;9.35;;;;;;;;;;5045960;28;20021;-66
2023/03/08 08:14:33;;;;;;;64.60;9.70;;;;;;;;;;5040140;28;20037;-67
2023/03/08 08:17:00;;;;;;;69.50;10.68;;;;;;;;;;5042108;28;20040;-66
2023/03/08 08:19:26;;;;;;;46.88;9.05;;;;;;;;;;5040210;28;20155;-66
2023/03/08 08:21:52;;;;;;;56.80;10.10;;;;;;;;;;5044390;28;20489;-66
2023/03/08 08:24:18;;;;;;;55.90;10.57;;;;;;;;;;5046562;28;20068;-68
2023/03/08 08:26:44;;;;;;;55.88;8.88;;;;;;;;;;5046979;28;20023;-66
2023/03/08 08:29:10;;;;;;;52.03;9.55;;;;;;;;;;5037460;28;20028;-66
2023/03/08 08:31:36;;;;;;;54.88;11.20;;;;;;;;;;5045930;28;20025;-66
2023/03/08 08:34:02;;;;;;;44.85;8.25;;;;;;;;;;5047575;28;20094;-66
2023/03/08 08:36:28;;;;;;;52.38;7.90;;;;;;;;;;5043428;28;20088;-66
2023/03/08 08:38:55;;;;;;;47.75;9.05;;;;;;;;;;5048276;28;20570;-66
2023/03/08 08:41:21;;;;;;;53.38;10.10;;;;;;;;;;5063154;28;20048;-66
2023/03/08 08:43:48;;;;;;;55.10;8.48;;;;;;;;;;5068946;28;20052;-66
2023/03/08 08:46:14;;;;;;;48.72;8.52;;;;;;;;;;5058945;28;20092;-66
2023/03/08 08:48:41;;;;;;;44.28;7.88;;;;;;;;;;5067723;28;20048;-67
2023/03/08 08:51:08;;;;;;;54.00;11.95;;;;;;;;;;5063799;28;20033;-66
2023/03/08 08:53:35;;;;;;;50.03;8.93;;;;;;;;;;5066602;28;20040;-66
2023/03/08 08:56:18;;;;;;;61.60;10.43;;;;;;;;;;5066694;28;20029;-67
2023/03/08 08:58:46;;;;;;;65.80;9.23;;;;;;;;;;5067007;28;20031;-68
2023/03/08 09:01:42;;;;;;;51.30;9.10;;;;;;;;;;5065988;28;20025;-68
2023/03/08 09:04:12;;;;;;;54.35;9.80;;;;;;;;;;5065534;28;20120;-68
2023/03/08 09:06:39;;;;;;;42.72;10.05;;;;;;;;;;5070459;28;20051;-68
2023/03/08 09:09:05;;;;;;;59.15;10.90;;;;;;;;;;5053087;28;20354;-68
2023/03/08 09:11:32;;;;;;;52.17;8.50;;;;;;;;;;5071578;28;20507;-67
2023/03/08 09:13:58;;;;;;;49.50;8.05;;;;;;;;;;5066420;28;20461;-67
2023/03/08 09:16:24;;;;;;;46.35;7.93;;;;;;;;;;5070184;28;20795;-66
2023/03/08 09:18:50;;;;;;;52.55;8.10;;;;;;;;;;5065457;28;20029;-67
2023/03/08 09:21:17;;;;;;;43.08;7.65;;;;;;;;;;5068278;28;20043;-66
2023/03/08 09:23:44;;;;;;;54.50;7.53;;;;;;;;;;5067693;28;20381;-66
2023/03/08 09:26:10;;;;;;;57.83;9.55;;;;;;;;;;5064716;28;20029;-66
2023/03/08 09:28:36;;;;;;;50.67;8.60;;;;;;;;;;5070050;28;20033;-66
2023/03/08 09:31:10;;;;;;;58.70;9.20;;;;;;;;;;5069533;28;20020;-66
2023/03/08 09:33:37;;;;;;;56.13;9.18;;;;;;;;;;5068290;28;20123;-66
2023/03/08 09:36:03;;;;;;;55.90;9.57;;;;;;;;;;5069397;28;20039;-66
2023/03/08 09:38:29;;;;;;;46.70;8.90;;;;;;;;;;5068018;28;20029;-66
2023/03/08 09:41:06;;;;;;;45.67;9.15;;;;;;;;;;5052975;28;20389;-65
2023/03/08 09:43:43;;;;;;;44.15;8.43;;;;;;;;;;5059677;28;20392;-65
2023/03/08 09:46:12;;;;;;;39.60;7.68;;;;;;;;;;5059647;28;20429;-66
2023/03/08 09:48:38;;;;;;;41.22;8.75;;;;;;;;;;5070544;28;20048;-66
2023/03/08 09:51:08;;;;;;;42.55;7.22;;;;;;;;;;5070956;28;20063;-67
2023/03/08 09:53:53;;;;;;;47.28;8.13;;;;;;;;;;5062754;28;20033;-66
2023/03/08 09:56:26;;;;;;;43.10;7.53;;;;;;;;;;5070855;28;20056;-66
2023/03/08 09:58:58;;;;;;;33.50;6.97;;;;;;;;;;5065008;28;20028;-65
2023/03/08 10:01:43;;;;;;;53.53;8.32;;;;;;;;;;5065401;28;20037;-64
2023/03/08 10:04:28;;;;;;;41.50;7.72;;;;;;;;;;5061406;28;20025;-65
2023/03/08 10:07:09;;;;;;;41.20;7.10;;;;;;;;;;5062824;28;20028;-65
2023/03/08 10:09:39;;;;;;;37.85;7.30;;;;;;;;;;5059818;28;20491;-65
2023/03/08 10:12:28;;;;;;;50.70;8.93;;;;;;;;;;5063620;28;20025;-66
2023/03/08 10:14:56;;;;;;;48.63;10.25;;;;;;;;;;5061309;28;20025;-66
2023/03/08 10:17:30;;;;;;;53.17;7.70;;;;;;;;;;5063064;28;20039;-66
2023/03/08 10:19:59;;;;;;;40.35;8.15;;;;;;;;;;5066508;28;20029;-65
2023/03/08 10:22:27;;;;;;;45.80;8.75;;;;;;;;;;5062814;28;20056;-66
2023/03/08 10:24:57;;;;;;;54.92;7.47;;;;;;;;;;5062860;28;20024;-65
2023/03/08 10:27:25;;;;;;;42.10;8.50;;;;;;;;;;5065904;28;20025;-65
2023/03/08 10:29:55;;;;;;;43.40;7.22;;;;;;;;;;5061124;28;20046;-65
2023/03/08 10:32:22;;;;;;;37.63;7.22;;;;;;;;;;5062563;28;20407;-65
2023/03/08 10:34:49;;;;;;;53.00;7.50;;;;;;;;;;5063903;28;20082;-65
2023/03/08 10:37:15;;;;;;;38.63;6.75;;;;;;;;;;5063534;28;20036;-64
2023/03/08 10:39:51;;;;;;;38.17;6.68;;;;;;;;;;5064514;28;20033;-64
2023/03/08 10:42:20;;;;;;;38.45;6.82;;;;;;;;;;5065452;28;20350;-65
2023/03/08 10:44:52;;;;;;;53.70;8.68;;;;;;;;;;5050879;28;20020;-65
2023/03/08 10:47:53;;;;;;;45.65;8.70;;;;;;;;;;5066543;28;20033;-65
2023/03/08 10:50:23;;;;;;;41.67;5.95;;;;;;;;;;5067094;28;20036;-65
2023/03/08 10:52:53;;;;;;;40.92;7.63;;;;;;;;;;5066315;28;20028;-65
2023/03/08 10:55:22;;;;;;;51.72;8.32;;;;;;;;;;5052025;28;20025;-65
2023/03/08 10:57:53;;;;;;;30.52;6.15;;;;;;;;;;5065076;28;20103;-66
2023/03/08 11:00:19;;;;;;;44.90;6.13;;;;;;;;;;5050545;28;20021;-66
2023/03/08 11:02:50;;;;;;;44.25;7.30;;;;;;;;;;5064423;28;20021;-66
2023/03/08 11:05:18;;;;;;;41.08;6.13;;;;;;;;;;5064901;28;20408;-66
2023/03/08 11:08:09;;;;;;;;;;;;;;;;;;5052316;28;20387;-66
2023/03/08 11:11:02;;;;;;;31.30;5.90;;;;;;;;;;5063915;28;19974;-66
2023/03/08 11:13:54;;;;;;;41.22;5.68;;;;;;;;;;5050050;28;20134;-66
2023/03/08 11:16:46;;;;;;;40.55;6.45;;;;;;;;;;5061481;28;20052;-66
2023/03/08 11:19:20;;;;;;;38.25;6.47;;;;;;;;;;5050185;28;20063;-66
2023/03/08 11:21:46;;;;;;;41.63;9.50;;;;;;;;;;5062938;28;20021;-66
2023/03/08 11:24:47;;;;;;;38.17;6.65;;;;;;;;;;5065443;28;20499;-66
2023/03/08 11:34:31;;;;;;;33.28;6.35;;;;;;;;;;5024077;28;20036;-71
2023/03/08 11:36:57;;;;;;;34.63;5.55;;;;;;;;;;5019599;28;20041;-71
2023/03/08 11:39:31;;;;;;;32.22;5.55;;;;;;;;;;5050184;28;20165;-71
2023/03/08 11:42:02;;;;;;;35.50;5.90;;;;;;;;;;5026973;28;20033;-71
2023/03/08 11:44:29;;;;;;;31.25;5.97;;;;;;;;;;5028089;28;20026;-71
2023/03/08 11:46:59;;;;;;;38.08;5.55;;;;;;;;;;5030819;28;20018;-71
2023/03/08 11:49:25;;;;;;;34.22;6.40;;;;;;;;;;5027788;28;20022;-71
2023/03/08 11:52:10;;;;;;;25.52;5.05;;;;;;;;;;5027213;28;20037;-71
2023/03/08 11:54:59;;;;;;;27.67;7.63;;;;;;;;;;5028335;28;20025;-71
2023/03/08 11:57:28;;;;;;;22.08;4.35;;;;;;;;;;5027185;28;20036;-71
2023/03/08 11:59:56;;;;;;;25.42;4.15;;;;;;;;;;5029983;28;20026;-71
2023/03/08 12:02:29;;;;;;;23.73;4.05;;;;;;;;;;5029017;28;20014;-71
2023/03/08 12:05:00;;;;;;;23.13;3.83;;;;;;;;;;5009418;28;20504;-72
2023/03/08 12:07:35;;;;;;;18.88;4.57;;;;;;;;;;5025909;28;20753;-72
2023/03/08 12:10:04;;;;;;;18.88;3.28;;;;;;;;;;5027063;28;20420;-72
2023/03/08 12:12:34;;;;;;;18.67;4.28;;;;;;;;;;5029731;28;20112;-72
2023/03/08 12:15:19;;;;;;;26.98;5.13;;;;;;;;;;5028072;28;20519;-72
2023/03/08 12:17:52;;;;;;;18.10;3.97;;;;;;;;;;5027743;28;20038;-72
2023/03/08 12:20:21;;;;;;;21.42;4.22;;;;;;;;;;5028993;28;20507;-73
2023/03/08 12:23:10;;;;;;;19.45;4.30;;;;;;;;;;5032483;28;20097;-74
2023/03/08 12:25:39;;;;;;;28.17;3.92;;;;;;;;;;5031837;28;20029;-74
2023/03/08 12:28:19;;;;;;;22.85;5.30;;;;;;;;;;5032163;28;20044;-74
2023/03/08 12:30:48;;;;;;;23.42;3.08;;;;;;;;;;5029891;28;20025;-74
2023/03/08 12:33:15;;;;;;;21.15;3.63;;;;;;;;;;5030452;28;20116;-74
2023/03/08 12:35:50;;;;;;;21.08;3.15;;;;;;;;;;5014777;28;20037;-74
2023/03/08 12:38:19;;;;;;;18.42;3.42;;;;;;;;;;5033508;28;20029;-74
2023/03/08 12:40:46;;;;;;;25.13;4.15;;;;;;;;;;5033667;28;20480;-74
2023/03/08 12:43:28;;;;;;;16.48;3.75;;;;;;;;;;5034062;28;20119;-76
2023/03/08 12:46:00;;;;;;;16.45;4.63;;;;;;;;;;5033546;28;20021;-74
2023/03/08 12:48:28;;;;;;;18.23;3.60;;;;;;;;;;5033602;28;20045;-74
2023/03/08 12:50:54;;;;;;;16.98;3.88;;;;;;;;;;5036891;28;20354;-75
2023/03/08 12:53:32;;;;;;;23.02;4.00;;;;;;;;;;5013440;28;20029;-75
2023/03/08 12:56:01;;;;;;;16.80;4.90;;;;;;;;;;5031296;28;20414;-74
2023/03/08 12:58:28;;;;;;;28.35;4.18;;;;;;;;;;5029092;28;20507;-74
2023/03/08 13:00:58;;;;;;;23.70;6.22;;;;;;;;;;5034239;28;20021;-74
2023/03/08 13:03:26;;;;;;;22.50;4.03;;;;;;;;;;5038000;28;20083;-74
2023/03/08 13:05:52;;;;;;;22.83;5.28;;;;;;;;;;5032611;28;20029;-73
2023/03/08 13:08:27;;;;;;;30.67;5.43;;;;;;;;;;5030780;28;20029;-74
2023/03/08 13:10:53;;;;;;;30.55;5.30;;;;;;;;;;5036849;28;20037;-74
2023/03/08 13:13:23;;;;;;;35.97;6.05;;;;;;;;;;5033130;28;20114;-74
2023/03/08 13:15:49;;;;;;;34.08;5.47;;;;;;;;;;5035016;28;20373;-74
2023/03/08 13:18:17;;;;;;;28.98;5.43;;;;;;;;;;5031952;28;20109;-75
2023/03/08 13:20:50;;;;;;;28.75;6.03;;;;;;;;;;5030478;28;20013;-74
2023/03/08 13:23:21;;;;;;;27.95;5.78;;;;;;;;;;5029453;28;20101;-74
2023/03/08 13:26:00;;;;;;;33.75;5.75;;;;;;;;;;5032064;28;20415;-74
2023/03/08 13:28:31;;;;;;;34.40;6.25;;;;;;;;;;5028868;28;20025;-74
2023/03/08 13:31:18;;;;;;;32.20;7.45;;;;;;;;;;5034070;28;20030;-74
2023/03/08 13:33:47;;;;;;;25.80;6.28;;;;;;;;;;5030197;28;20509;-74
2023/03/08 13:36:23;;;;;;;29.33;6.03;;;;;;;;;;5031969;28;20075;-74
2023/03/08 13:39:02;;;;;;;29.48;5.75;;;;;;;;;;5026260;28;20038;-74
2023/03/08 13:41:44;;;;;;;29.10;5.68;;;;;;;;;;5030411;28;20033;-74
2023/03/08 13:44:21;;;;;;;21.10;5.00;;;;;;;;;;5032765;28;20048;-73
2023/03/08 13:46:48;;;;;;;25.88;4.50;;;;;;;;;;5030240;28;20049;-74
2023/03/08 13:49:24;;;;;;;29.55;5.40;;;;;;;;;;5029616;28;20057;-74
2023/03/08 13:51:55;;;;;;;36.58;6.93;;;;;;;;;;5028316;28;20033;-74
2023/03/08 13:54:28;;;;;;;32.15;5.35;;;;;;;;;;5035945;28;20042;-74
2023/03/08 13:56:54;;;;;;;24.23;4.95;;;;;;;;;;5026398;28;20038;-74
2023/03/08 13:59:21;;;;;;;28.83;5.10;;;;;;;;;;5031170;28;20044;-73
2023/03/08 14:01:48;;;;;;;35.80;6.65;;;;;;;;;;5029576;28;20018;-72
2023/03/08 14:04:18;;;;;;;43.10;7.40;;;;;;;;;;5025437;28;20048;-72
2023/03/08 14:06:54;;;;;;;33.70;7.38;;;;;;;;;;5039623;28;20437;-72
2023/03/08 14:09:20;;;;;;;30.58;7.13;;;;;;;;;;5027915;28;20116;-73
2023/03/08 14:11:53;;;;;;;39.90;7.32;;;;;;;;;;5028224;28;20025;-74
2023/03/08 14:14:19;;;;;;;;;;;;;;;;;;5031111;28;20048;-73
2023/03/08 14:16:45;;;;;;;53.78;7.50;;;;;;;;;;5030505;28;19909;-72
2023/03/08 14:19:21;;;;;;;42.28;8.38;;;;;;;;;;5028440;28;20034;-73
2023/03/08 14:22:10;;;;;;;53.35;8.40;;;;;;;;;;5031316;28;20021;-74
2023/03/08 14:24:37;;;;;;;50.90;9.63;;;;;;;;;;5022619;28;20488;-74
2023/03/08 14:27:03;;;;;;;45.58;8.35;;;;;;;;;;5011811;28;20514;-73
2023/03/08 14:29:30;;;;;;;47.60;9.10;;;;;;;;;;5029718;28;20071;-73
2023/03/08 14:31:56;;;;;;;58.65;7.68;;;;;;;;;;5029951;28;20033;-74
2023/03/08 14:34:27;;;;;;;39.70;7.65;;;;;;;;;;5025970;28;20037;-74
2023/03/08 14:36:58;;;;;;;43.75;7.25;;;;;;;;;;5027625;28;20105;-74
2023/03/08 14:39:25;;;;;;;49.92;7.65;;;;;;;;;;5029662;28;20033;-73
2023/03/08 14:41:51;;;;;;;44.75;7.90;;;;;;;;;;5029137;28;20728;-74
2023/03/08 14:44:22;;;;;;;60.85;8.93;;;;;;;;;;5028010;28;20033;-74
2023/03/08 14:46:56;;;;;;;49.85;8.68;;;;;;;;;;5029462;28;20065;-74
2023/03/08 14:49:23;;;;;;;52.25;7.28;;;;;;;;;;5034092;28;20097;-73
2023/03/08 14:51:49;;;;;;;46.20;8.32;;;;;;;;;;5032709;28;20037;-74